WetterOnline ( https://www.wetteronline.de )

Wetter aktuell Fichtelberg

Aktuelles Wetter: Fichtelberg (1215m)

6-stündlich | Neueste Meldungen
Ortszeit Temperatur Wetter
Mo, 28.11. 19:00 1.3° C bedeckt
Mo, 28.11. 13:00 1.8° C bedeckt
Mo, 28.11. 7:00 0.3° C bedeckt
Mo, 28.11. 1:00 -0.2° C wolkig
So, 27.11. 19:00 -0.9° C bedeckt
So, 27.11. 13:00 2.3° C wolkenlos
So, 27.11. 7:00 -1.4° C wolkig
So, 27.11. 1:00 -2.0° C wolkenlos
Ortszeit Temperatur Wetter
Mo, 28.11. 23:00 1.8° C Regen
Mo, 28.11. 22:50 1.8° C bedeckt
Mo, 28.11. 22:40 1.8° C bewölkt
Mo, 28.11. 22:30 1.8° C Sprühregen
Mo, 28.11. 22:20 1.8° C Sprühregen
Mo, 28.11. 22:10 1.7° C Sprühregen
Mo, 28.11. 22:00 1.9° C leicht bewölkt
Mo, 28.11. 21:30 1.4° C bewölkt
Mo, 28.11. 21:00 1.4° C bedeckt
Mo, 28.11. 20:30 1.3° C bedeckt
Mo, 28.11. 20:00 1.2° C bewölkt
Ortszeit Relative Feuchte Sichtweite
Mo, 28.11. 19:00 60% >70 km
Mo, 28.11. 13:00 42% >70 km
Mo, 28.11. 7:00 53% >70 km
Mo, 28.11. 1:00 57% >70 km
So, 27.11. 19:00 78% 65 km
So, 27.11. 13:00 51% >70 km
So, 27.11. 7:00 83% >70 km
So, 27.11. 1:00 96% 26 km
Ortszeit Relative Feuchte Sichtweite
Mo, 28.11. 23:00 89% 30 km
Mo, 28.11. 22:50 89% -
Mo, 28.11. 22:40 89% -
Mo, 28.11. 22:30 81% 35 km
Mo, 28.11. 22:20 81% -
Mo, 28.11. 22:10 77% -
Mo, 28.11. 22:00 73% 65 km
Mo, 28.11. 21:30 68% >70 km
Mo, 28.11. 21:00 62% >70 km
Mo, 28.11. 20:30 62% >70 km
Mo, 28.11. 20:00 67% >70 km
Ortszeit Niederschlagsmenge Niederschlagsart
Mo, 28.11. 19:00 0.0 l/m2 in 12 Std. -
Mo, 28.11. 13:00 0.0 l/m2 in 6 Std. -
Mo, 28.11. 7:00 0.0 l/m2 in 12 Std. -
Mo, 28.11. 1:00 0.0 l/m2 in 6 Std. -
So, 27.11. 19:00 0.0 l/m2 in 12 Std. -
So, 27.11. 13:00 0.0 l/m2 in 6 Std. -
So, 27.11. 7:00 0.0 l/m2 in 12 Std. -
So, 27.11. 1:00 0.0 l/m2 in 6 Std. -
Ortszeit Niederschlagsmenge Niederschlagsart
Mo, 28.11. 23:00 <0.05 l/m2 in 1 Std. Sprühregen
Mo, 28.11. 22:50 keine Meldung -
Mo, 28.11. 22:40 keine Meldung -
Mo, 28.11. 22:30 <0.05 l/m2 in 1 Std. -
Mo, 28.11. 22:20 keine Meldung -
Mo, 28.11. 22:10 keine Meldung -
Mo, 28.11. 22:00 0.0 l/m2 in 1 Std. -
Mo, 28.11. 21:30 0.0 l/m2 in 1 Std. -
Mo, 28.11. 21:00 0.0 l/m2 in 1 Std. -
Mo, 28.11. 20:30 0.0 l/m2 in 1 Std. -
Mo, 28.11. 20:00 0.0 l/m2 in 1 Std. -
Ortszeit Stärke Spitze Richtung
km/h Bft. km/h Grad Sektor
Mo, 28.11. 19:00 13 3 44 260° W
Mo, 28.11. 13:00 33 5 39 190° S
Mo, 28.11. 7:00 28 4 44 170° S
Mo, 28.11. 1:00 28 4 50 140° SO
So, 27.11. 19:00 30 5 39 170° S
So, 27.11. 13:00 26 4 30 210° SW
So, 27.11. 7:00 4 1 18 80° O
So, 27.11. 1:00 17 3 31 230° SW
Ortszeit Stärke Spitze Richtung
km/h Bft. km/h Grad Sektor
Mo, 28.11. 23:00 25 4 32 220° SW
Mo, 28.11. 22:50 25 4 - 220° SW
Mo, 28.11. 22:40 25 4 - 230° SW
Mo, 28.11. 22:30 29 5 32 230° SW
Mo, 28.11. 22:20 29 5 - 230° SW
Mo, 28.11. 22:10 28 4 - 230° SW
Mo, 28.11. 22:00 22 4 29 230° SW
Mo, 28.11. 21:30 18 3 22 240° SW
Mo, 28.11. 21:00 11 2 14 240° SW
Mo, 28.11. 20:30 11 2 14 260° W
Mo, 28.11. 20:00 9 2 17 270° W
Ortszeit Untergrenze Bedeckung Gattung
total tief tief mittel hoch
Mo, 28.11. 19:00 2100 m 8/8 8/8 - - -
Mo, 28.11. 13:00 1380 m 8/8 8/8 - - -
Mo, 28.11. 7:00 1290 m 8/8 8/8 - - -
Mo, 28.11. 1:00 2400 m 8/8 1/8 - - -
So, 27.11. 19:00 4500 m 8/8 8/8 - - -
So, 27.11. 13:00 - 0/8 0/8 - - -
So, 27.11. 7:00 8400 m 8/8 0/8 - - -
So, 27.11. 1:00 - 0/8 0/8 - - -
Ortszeit Bedeckungsgrad in Achtel und Wolkenuntergrenze
Mo, 28.11. 23:00 2(720m) 6(1260m) 8(1800m)
Mo, 28.11. 22:50 2(720m) 6(1260m) 8(1800m)
Mo, 28.11. 22:40 7
Mo, 28.11. 22:30 2(780m) 3(1170m) 7(1800m)
Mo, 28.11. 22:20 2(780m) 3(1170m) 7(1800m)
Mo, 28.11. 22:10 6
Mo, 28.11. 22:00 3(1500m)
Mo, 28.11. 21:30 6(1500m) 7(2100m)
Mo, 28.11. 21:00 8(1500m) 8(3000m) 8(3600m)
Mo, 28.11. 20:30 5(1500m) 8(2100m)
Mo, 28.11. 20:00 6(1800m) 7(2100m) 8(3900m)
Ortszeit Stationsdruck (hPa) Tendenz (hPa in 3 Std.)
Mo, 28.11. 19:00 875 + 0,1
Mo, 28.11. 13:00 875 - 0,7
Mo, 28.11. 7:00 876 - 1,3
Mo, 28.11. 1:00 879 - 1,7
So, 27.11. 19:00 882 - 1,7
So, 27.11. 13:00 885 - 1,1
So, 27.11. 7:00 887 - 0,6
So, 27.11. 1:00 888 - 0,4
Ortszeit Stationsdruck (hPa) Tendenz (hPa in 3 Std.)
Mo, 28.11. 23:00 875 + 0,3
Mo, 28.11. 22:50 875 keine Meldung
Mo, 28.11. 22:40 875 keine Meldung
Mo, 28.11. 22:30 875 + 0,3
Mo, 28.11. 22:20 875 keine Meldung
Mo, 28.11. 22:10 875 keine Meldung
Mo, 28.11. 22:00 875 + 0,4
Mo, 28.11. 21:30 875 + 0,3
Mo, 28.11. 21:00 875 + 0,4
Mo, 28.11. 20:30 875 + 0,2
Mo, 28.11. 20:00 875 + 0,2
Ortszeit Schneehöhe (cm)
Mo, 28.11. 19:00 5
Mo, 28.11. 13:00 5
Mo, 28.11. 7:00 5
Mo, 28.11. 1:00 5
So, 27.11. 19:00 5
So, 27.11. 13:00 5
So, 27.11. 7:00 5
So, 27.11. 1:00 5
Ortszeit Schneehöhe (cm)
Mo, 28.11. 23:00 5
Mo, 28.11. 22:50 5
Mo, 28.11. 22:40 5
Mo, 28.11. 22:30 5
Mo, 28.11. 22:20 5
Mo, 28.11. 22:10 5
Mo, 28.11. 22:00 5
Mo, 28.11. 21:30 5
Mo, 28.11. 21:00 5
Mo, 28.11. 20:30 5
Mo, 28.11. 20:00 5
Link zu dieser Seite / Seite empfehlen

Das Wetter in ...